Time;durP1;ratioP1;P1;durP2;ratioP2;P2;SDS_P1;SDS_P2;PMS_P1;PMS_P2;Temp;Humidity;BMP_temperature;BMP_pressure;BME280_temperature;BME280_humidity;BME280_pressure;Samples;Min_cycle;Max_cycle;Signal;HPM_P1;HPM_P2
2022/06/06 00:02:07;;;;;;;1.40;1.30;;;;;;;15.47;100.00;96464.56;4930882;28;101948;-59
2022/06/06 00:04:36;;;;;;;2.00;1.33;;;;;;;15.40;100.00;96468.66;4930822;28;105070;-59
2022/06/06 00:07:05;;;;;;;2.13;1.30;;;;;;;15.36;100.00;96476.44;4931259;28;102724;-59
2022/06/06 00:09:33;;;;;;;2.13;1.37;;;;;;;15.29;100.00;96475.13;4933992;28;101988;-59
2022/06/06 00:12:02;;;;;;;1.73;1.57;;;;;;;15.21;100.00;96481.06;4931341;28;103132;-59
2022/06/06 00:14:29;;;;;;;3.80;1.30;;;;;;;15.18;100.00;96487.78;4931930;28;101914;-59
2022/06/06 00:16:56;;;;;;;2.57;1.40;;;;;;;15.17;100.00;96494.22;4931954;28;102948;-59
2022/06/06 00:19:24;;;;;;;2.70;1.50;;;;;;;15.18;100.00;96498.50;4931414;28;102679;-59
2022/06/06 00:21:51;;;;;;;2.53;1.60;;;;;;;15.12;100.00;96504.97;4931634;28;101750;-59
2022/06/06 00:24:20;;;;;;;3.60;1.50;;;;;;;15.10;100.00;96501.75;4930437;28;105612;-59
2022/06/06 00:26:47;;;;;;;3.10;1.50;;;;;;;15.00;100.00;96509.03;4929865;28;106161;-59
2022/06/06 00:29:16;;;;;;;2.07;1.50;;;;;;;14.97;100.00;96509.56;4930386;28;101953;-59
2022/06/06 00:37:14;;;;;;;2.30;2.00;;;;;;;15.03;100.00;96516.50;4931626;28;102811;-59
2022/06/06 00:39:44;;;;;;;1.87;1.77;;;;;;;15.05;100.00;96520.50;4930850;28;101997;-59
2022/06/06 00:42:14;;;;;;;1.93;1.83;;;;;;;15.06;100.00;96519.47;4929692;28;102067;-59
2022/06/06 00:44:42;;;;;;;1.83;1.73;;;;;;;14.98;100.00;96524.59;4931528;28;102887;-59
2022/06/06 00:47:17;;;;;;;2.87;1.63;;;;;;;14.91;100.00;96532.91;4930349;28;102675;-60
2022/06/06 00:49:49;;;;;;;11.40;1.90;;;;;;;14.89;100.00;96547.66;4930014;28;101800;-59
2022/06/06 00:52:21;;;;;;;1.70;1.60;;;;;;;14.81;100.00;96540.16;4931589;28;102321;-59
2022/06/06 00:54:52;;;;;;;3.33;1.60;;;;;;;14.78;100.00;96535.38;4933664;28;102015;-59
2022/06/06 00:57:24;;;;;;;1.60;1.50;;;;;;;14.74;100.00;96539.66;4931584;28;102397;-59
2022/06/06 00:59:53;;;;;;;2.20;2.00;;;;;;;14.67;100.00;96534.56;4930966;28;102827;-59
2022/06/06 01:02:22;;;;;;;2.00;1.73;;;;;;;14.68;100.00;96535.41;4931292;28;102127;-59
2022/06/06 01:04:49;;;;;;;2.30;2.10;;;;;;;14.62;100.00;96544.50;4929571;28;106502;-59
2022/06/06 01:07:16;;;;;;;2.00;1.87;;;;;;;14.53;100.00;96546.94;4930804;28;102912;-59
2022/06/06 01:09:44;;;;;;;1.83;1.43;;;;;;;14.49;100.00;96550.44;4931235;28;102121;-59
2022/06/06 01:12:16;;;;;;;1.93;1.77;;;;;;;14.52;100.00;96549.88;4930048;28;105087;-59
2022/06/06 01:14:48;;;;;;;4.40;2.10;;;;;;;14.50;100.00;96555.50;4934111;28;102455;-59
2022/06/06 01:17:27;;;;;;;3.20;1.53;;;;;;;14.38;100.00;96551.53;4931017;28;103179;-59
2022/06/06 01:20:15;;;;;;;1.73;1.40;;;;;;;14.43;100.00;96543.47;4929281;28;105744;-59
2022/06/06 01:23:16;;;;;;;3.77;1.53;;;;;;;14.43;100.00;96546.13;4929827;28;101897;-59
2022/06/06 01:26:04;;;;;;;2.37;2.10;;;;;;;14.40;100.00;96549.38;4930918;28;101932;-59
2022/06/06 01:28:45;;;;;;;2.40;1.70;;;;;;;14.35;100.00;96536.00;4928956;28;106064;-59
2022/06/06 01:31:17;;;;;;;2.97;1.80;;;;;;;14.32;100.00;96537.34;4929834;28;102188;-59
2022/06/06 01:33:53;;;;;;;2.07;1.77;;;;;;;14.33;100.00;96538.16;4931205;28;102386;-59
2022/06/06 01:36:42;;;;;;;2.77;1.93;;;;;;;14.35;100.00;96539.50;4929796;28;102728;-59
2022/06/06 01:39:12;;;;;;;3.27;2.00;;;;;;;14.22;100.00;96537.34;4932853;28;101908;-59
2022/06/06 01:41:52;;;;;;;2.00;1.80;;;;;;;14.28;100.00;96544.28;4929087;28;105981;-59
2022/06/06 01:44:29;;;;;;;1.80;1.70;;;;;;;14.32;100.00;96532.00;4931257;28;101823;-59
2022/06/06 01:46:58;;;;;;;4.23;2.40;;;;;;;14.23;100.00;96541.63;4929815;28;105660;-59
2022/06/06 01:49:35;;;;;;;3.47;2.07;;;;;;;14.24;100.00;96551.28;4891779;28;103150;-59
2022/06/06 01:52:06;;;;;;;2.53;1.97;;;;;;;14.26;100.00;96532.25;4872142;28;101885;-59
2022/06/06 01:54:47;;;;;;;3.20;2.47;;;;;;;14.25;100.00;96536.00;4876242;28;102533;-59
2022/06/06 01:57:17;;;;;;;2.70;1.90;;;;;;;14.32;100.00;96537.34;4876001;28;103120;-59
2022/06/06 01:59:46;;;;;;;3.10;2.20;;;;;;;14.24;100.00;96534.41;4875386;28;101886;-59
2022/06/06 02:02:13;;;;;;;2.90;2.20;;;;;;;14.19;100.00;96537.06;4878789;28;102858;-59
2022/06/06 02:04:40;;;;;;;2.10;1.90;;;;;;;14.13;100.00;96540.81;4874888;28;102327;-59
2022/06/06 02:07:07;;;;;;;5.50;2.10;;;;;;;14.20;100.00;96544.03;4874926;28;105766;-59
2022/06/06 02:09:36;;;;;;;2.13;1.90;;;;;;;14.25;100.00;96541.34;4874172;28;105625;-59
2022/06/06 02:12:03;;;;;;;2.57;2.10;;;;;;;14.18;100.00;96552.28;4875822;28;101907;-59
2022/06/06 02:14:30;;;;;;;2.23;2.03;;;;;;;14.06;100.00;96551.00;4874978;28;105409;-59
2022/06/06 02:16:59;;;;;;;4.10;2.47;;;;;;;14.06;100.00;96551.78;4874088;28;105719;-59
2022/06/06 02:19:27;;;;;;;4.00;2.70;;;;;;;14.04;100.00;96559.28;4874584;28;102272;-59
2022/06/06 02:21:54;;;;;;;2.57;2.00;;;;;;;14.04;100.00;96561.94;4874740;28;105776;-59
2022/06/06 02:24:21;;;;;;;2.60;2.40;;;;;;;14.12;100.00;96547.25;4877423;28;106736;-59
2022/06/06 02:26:48;;;;;;;6.10;2.30;;;;;;;14.15;100.00;96557.38;4875915;28;102351;-59
2022/06/06 02:29:16;;;;;;;3.47;2.40;;;;;;;14.20;100.00;96552.06;4875271;28;102706;-59
2022/06/06 02:31:42;;;;;;;2.40;2.20;;;;;;;14.21;100.00;96556.34;4875962;28;101788;-59
2022/06/06 02:34:11;;;;;;;5.23;2.77;;;;;;;14.22;100.00;96564.09;4876032;28;102423;-59
2022/06/06 02:36:38;;;;;;;2.67;2.37;;;;;;;14.28;100.00;96564.91;4875155;28;103270;-59
2022/06/06 02:39:06;;;;;;;2.97;2.77;;;;;;;14.29;100.00;96569.19;4875672;28;102092;-59
2022/06/06 02:41:33;;;;;;;3.00;2.70;;;;;;;14.25;100.00;96557.41;4874157;28;106223;-59
2022/06/06 02:44:00;;;;;;;2.83;2.57;;;;;;;14.30;100.00;96566.25;4875270;28;102657;-59
2022/06/06 02:46:27;;;;;;;3.23;2.93;;;;;;;14.23;100.00;96568.38;4879288;28;101932;-59
2022/06/06 02:48:54;;;;;;;2.50;2.30;;;;;;;14.16;100.00;96570.50;4904493;28;102614;-59
2022/06/06 02:51:23;;;;;;;3.87;2.57;;;;;;;14.23;100.00;96567.59;4913495;28;101688;-59
2022/06/06 02:53:51;;;;;;;2.70;2.50;;;;;;;14.30;100.00;96573.47;4912539;28;105571;-59
2022/06/06 02:56:18;;;;;;;3.90;2.47;;;;;;;14.23;100.00;96575.63;4913288;28;102766;-59
2022/06/06 02:58:45;;;;;;;2.50;2.30;;;;;;;14.27;100.00;96579.34;4913835;28;102020;-59
2022/06/06 03:01:12;;;;;;;4.87;2.70;;;;;;;14.13;100.00;96578.25;4913801;28;102624;-59
2022/06/06 03:03:41;;;;;;;2.40;2.20;;;;;;;14.16;100.00;96577.69;4912672;28;102795;-59
2022/06/06 03:06:22;;;;;;;4.53;2.70;;;;;;;14.06;100.00;96575.84;4916884;28;101813;-59
2022/06/06 03:09:03;;;;;;;4.33;2.70;;;;;;;14.14;100.00;96571.84;4911755;28;105784;-59
2022/06/06 03:11:49;;;;;;;3.47;2.90;;;;;;;14.18;100.00;96580.94;4912222;28;101848;-59
2022/06/06 03:14:30;;;;;;;2.90;2.70;;;;;;;14.18;100.00;96586.28;4913630;28;102451;-59
2022/06/06 03:23:22;;;;;;;2.70;2.50;;;;;;;14.22;100.00;96600.75;4912254;28;105519;-59
2022/06/06 03:26:00;;;;;;;2.73;2.53;;;;;;;14.25;100.00;96595.66;4911511;28;106400;-59
2022/06/06 03:28:38;;;;;;;2.70;2.50;;;;;;;14.27;100.00;96592.72;4911569;28;101829;-59
2022/06/06 03:31:18;;;;;;;3.10;2.70;;;;;;;14.35;100.00;96589.50;4914709;28;106052;-59
2022/06/06 03:33:57;;;;;;;2.97;2.60;;;;;;;14.39;100.00;96595.94;4913754;28;102146;-59
2022/06/06 03:36:29;;;;;;;3.33;2.60;;;;;;;14.37;100.00;96592.72;4911820;28;105317;-59
2022/06/06 03:39:03;;;;;;;3.83;2.77;;;;;;;14.36;100.00;96607.16;4910869;28;105748;-59
2022/06/06 03:41:41;;;;;;;2.60;2.40;;;;;;;14.42;100.00;96611.44;4912923;28;101993;-59
2022/06/06 03:44:22;;;;;;;2.97;2.50;;;;;;;14.32;100.00;96606.09;4911780;28;104406;-59
2022/06/06 03:46:57;;;;;;;2.93;2.73;;;;;;;14.32;100.00;96596.19;4910995;28;105910;-59
2022/06/06 03:49:32;;;;;;;3.00;2.60;;;;;;;14.39;100.00;96603.97;4912229;28;102092;-59
2022/06/06 03:52:06;;;;;;;3.73;2.80;;;;;;;14.45;100.00;96608.22;4912627;28;104008;-59
2022/06/06 03:54:42;;;;;;;3.93;2.67;;;;;;;14.43;100.00;96610.34;4915637;28;102803;-59
2022/06/06 03:57:16;;;;;;;3.30;2.60;;;;;;;14.43;100.00;96610.34;4912921;28;102678;-59
2022/06/06 03:59:45;;;;;;;2.50;2.20;;;;;;;14.53;100.00;96613.03;4910624;28;103940;-59
2022/06/06 04:02:18;;;;;;;3.47;2.47;;;;;;;14.63;100.00;96613.03;4912528;28;101845;-59
2022/06/06 04:04:46;;;;;;;3.47;2.40;;;;;;;14.71;100.00;96612.50;4912427;28;102408;-59
2022/06/06 04:07:14;;;;;;;2.60;2.40;;;;;;;14.86;100.00;96605.22;4910676;28;105607;-59
2022/06/06 04:09:41;;;;;;;2.60;2.40;;;;;;;14.96;100.00;96607.06;4911140;28;101925;-59
2022/06/06 04:12:32;;;;;;;2.77;2.40;;;;;;;15.06;100.00;96607.03;4912336;28;101750;-59
2022/06/06 04:15:11;;;;;;;4.00;2.40;;;;;;;15.05;100.00;96614.25;4910300;28;105909;-59
2022/06/06 04:17:49;;;;;;;2.43;2.27;;;;;;;15.08;100.00;96611.06;4915598;28;101766;-59
2022/06/06 04:20:24;;;;;;;2.50;2.10;;;;;;;15.15;100.00;96618.81;4910519;28;105961;-59
2022/06/06 04:23:17;;;;;;;2.53;2.30;;;;;;;15.19;100.00;96611.81;4912318;28;101814;-59
2022/06/06 04:25:50;;;;;;;2.97;2.20;;;;;;;15.27;100.00;96620.06;4912585;28;101740;-59
2022/06/06 04:28:27;;;;;;;3.53;2.20;;;;;;;15.32;100.00;96608.56;4912052;28;102786;-59
2022/06/06 04:31:03;;;;;;;3.80;2.40;;;;;;;15.36;100.00;96609.66;4911135;28;101751;-59
2022/06/06 04:33:42;;;;;;;2.07;1.83;;;;;;;15.37;100.00;96608.56;4910772;28;105413;-59
2022/06/06 04:36:16;;;;;;;2.20;2.00;;;;;;;15.42;100.00;96606.66;4912016;28;102837;-59
2022/06/06 04:38:52;;;;;;;2.73;2.20;;;;;;;15.46;100.00;96598.84;4912180;28;101799;-59
2022/06/06 04:41:27;;;;;;;2.70;2.50;;;;;;;15.54;100.00;96604.44;4913707;28;105230;-59
2022/06/06 04:44:22;;;;;;;2.17;1.90;;;;;;;15.60;100.00;96607.91;4912035;28;102067;-59
2022/06/06 04:46:53;;;;;;;2.77;2.00;;;;;;;15.64;100.00;96604.41;4912391;28;102306;-59
2022/06/06 04:49:23;;;;;;;2.30;2.20;;;;;;;15.70;100.00;96608.66;4911173;28;101702;-59
2022/06/06 04:51:51;;;;;;;3.03;2.27;;;;;;;15.49;100.00;96611.72;4910859;28;102167;-59
2022/06/06 04:54:22;;;;;;;2.33;2.13;;;;;;;15.53;100.00;96602.06;4910611;28;104928;-59
2022/06/06 04:56:52;;;;;;;2.07;1.90;;;;;;;15.66;100.00;96614.84;4911726;28;102587;-59
2022/06/06 04:59:23;;;;;;;2.27;2.07;;;;;;;15.76;100.00;96614.78;4911845;28;101820;-59
2022/06/06 05:01:50;;;;;;;2.33;2.03;;;;;;;15.84;100.00;96615.00;4910539;28;105212;-59
2022/06/06 05:04:17;;;;;;;2.77;2.13;;;;;;;15.87;100.00;96610.97;4914882;28;102650;-59
2022/06/06 05:07:16;;;;;;;2.50;2.30;;;;;;;15.99;100.00;96609.56;4911596;28;102515;-59
2022/06/06 05:10:15;;;;;;;2.73;2.30;;;;;;;15.94;100.00;96604.22;4903337;28;105497;-59
2022/06/06 05:13:19;;;;;;;2.30;2.10;;;;;;;16.10;100.00;96608.41;4900052;28;102056;-59
2022/06/06 05:16:01;;;;;;;4.03;2.27;;;;;;;16.21;100.00;96603.75;4911838;28;102332;-59
2022/06/06 05:18:53;;;;;;;3.37;2.00;;;;;;;16.36;100.00;96606.31;4909840;28;104325;-59
2022/06/06 05:21:34;;;;;;;2.87;2.00;;;;;;;16.66;100.00;96600.69;4910296;28;101934;-59
2022/06/06 05:24:35;;;;;;;2.50;1.80;;;;;;;16.82;100.00;96589.53;4910571;28;105456;-59
2022/06/06 05:27:13;;;;;;;1.73;1.63;;;;;;;16.95;100.00;96590.75;4908747;28;103030;-59
2022/06/06 05:29:58;;;;;;;3.43;1.90;;;;;;;17.12;100.00;96593.78;4912925;28;104068;-59
2022/06/06 05:32:49;;;;;;;3.23;2.00;;;;;;;17.04;100.00;96584.47;4914715;28;102559;-59
2022/06/06 05:35:28;;;;;;;2.13;1.83;;;;;;;16.94;100.00;96586.47;4915272;28;101865;-59
2022/06/06 05:38:09;;;;;;;2.20;2.00;;;;;;;16.88;100.00;96587.59;4914805;28;101773;-59
2022/06/06 05:40:38;;;;;;;1.80;1.70;;;;;;;16.89;100.00;96602.63;4913153;28;105846;-59
2022/06/06 05:43:17;;;;;;;1.60;1.50;;;;;;;16.90;100.00;96594.28;4914646;28;102423;-59
2022/06/06 05:45:55;;;;;;;1.50;1.40;;;;;;;17.01;100.00;96600.34;4914797;28;102587;-59
2022/06/06 05:48:43;;;;;;;2.50;1.87;;;;;;;17.29;100.00;96594.13;4912718;28;105374;-59
2022/06/06 05:51:21;;;;;;;2.03;1.80;;;;;;;17.65;100.00;96587.25;4918043;28;101707;-59
2022/06/06 05:54:10;;;;;;;1.80;1.60;;;;;;;17.97;100.00;96588.09;4912901;28;103869;-59
2022/06/06 05:56:56;;;;;;;1.70;1.60;;;;;;;18.18;100.00;96577.81;4913478;28;101832;-59
2022/06/06 05:59:44;;;;;;;1.53;1.43;;;;;;;18.12;100.00;96587.06;4913113;28;105301;-59
2022/06/06 06:02:39;;;;;;;2.00;1.60;;;;;;;18.05;100.00;96589.34;4914352;28;103103;-59
2022/06/06 06:05:26;;;;;;;2.13;1.60;;;;;;;18.17;100.00;96584.28;4914674;28;101730;-60
2022/06/06 06:08:05;;;;;;;1.93;1.70;;;;;;;18.43;100.00;96588.22;4913190;28;105568;-60
2022/06/06 06:10:41;;;;;;;2.47;1.60;;;;;;;18.66;100.00;96579.19;4912752;28;105496;-60
2022/06/06 06:13:29;;;;;;;2.37;1.63;;;;;;;18.78;100.00;96584.91;4912932;28;102153;-60
2022/06/06 06:16:01;;;;;;;1.37;1.37;;;;;;;19.03;100.00;96585.22;4915976;28;105186;-60
2022/06/06 06:18:33;;;;;;;1.53;1.47;;;;;;;19.28;100.00;96584.78;4913101;28;102052;-60
2022/06/06 06:21:08;;;;;;;13.23;1.70;;;;;;;19.13;100.00;96584.25;4912639;28;105281;-60
2022/06/06 06:23:39;;;;;;;1.50;1.40;;;;;;;18.99;100.00;96578.03;4913871;28;102682;-60
2022/06/06 06:26:07;;;;;;;1.80;1.67;;;;;;;18.94;100.00;96575.44;4912787;28;101938;-60
2022/06/06 06:28:37;;;;;;;2.13;1.63;;;;;;;19.03;100.00;96577.13;4912846;28;105702;-60
2022/06/06 06:31:19;;;;;;;4.13;1.60;;;;;;;18.80;100.00;96580.03;4913399;28;103255;-60
2022/06/06 06:34:07;;;;;;;2.23;1.50;;;;;;;18.79;100.00;96573.03;4914184;28;101774;-60
2022/06/06 06:36:44;;;;;;;1.37;1.27;;;;;;;18.80;100.00;96578.13;4913938;28;102395;-60
2022/06/06 06:39:26;;;;;;;1.80;1.70;;;;;;;18.72;100.00;96575.31;4916236;28;102695;-60
2022/06/06 06:42:06;;;;;;;2.70;1.50;;;;;;;18.81;100.00;96582.41;4914073;28;103029;-60
2022/06/06 06:44:35;;;;;;;4.23;1.70;;;;;;;18.65;100.00;96577.59;4911945;28;105676;-60
2022/06/06 06:47:11;;;;;;;1.90;1.70;;;;;;;18.59;100.00;96581.47;4913622;28;101781;-61
2022/06/06 06:49:43;;;;;;;1.60;1.50;;;;;;;18.50;100.00;96589.44;4912443;28;105392;-60
2022/06/06 06:52:27;;;;;;;1.50;1.40;;;;;;;18.69;100.00;96589.38;4913319;28;103129;-60
2022/06/06 06:55:08;;;;;;;1.73;1.57;;;;;;;18.84;100.00;96584.53;4912608;28;101989;-60
2022/06/06 06:58:00;;;;;;;1.67;1.40;;;;;;;18.82;100.00;96589.41;4912452;28;105061;-60
2022/06/06 07:00:30;;;;;;;1.53;1.43;;;;;;;18.67;100.00;96583.47;4913312;28;103117;-60
2022/06/06 07:09:07;;;;;;;2.50;1.50;;;;;;;19.15;100.00;96573.94;4913804;28;101777;-60
2022/06/06 07:11:49;;;;;;;1.33;1.30;;;;;;;19.46;100.00;96580.38;4913658;28;102345;-60
2022/06/06 07:14:37;;;;;;;1.27;1.27;;;;;;;19.32;100.00;96574.19;4911558;28;105724;-60
2022/06/06 07:17:06;;;;;;;2.00;1.43;;;;;;;19.28;100.00;96579.38;4912058;28;101936;-60
2022/06/06 07:19:37;;;;;;;2.30;1.50;;;;;;;19.27;100.00;96577.78;4913321;28;102765;-60
2022/06/06 07:22:05;;;;;;;2.03;1.50;;;;;;;19.13;100.00;96574.25;4911397;28;104427;-60
2022/06/06 07:24:37;;;;;;;1.60;1.50;;;;;;;19.35;100.00;96566.28;4911918;28;102490;-60
2022/06/06 07:27:07;;;;;;;1.80;1.70;;;;;;;19.77;100.00;96565.09;4914492;28;105708;-60
2022/06/06 07:29:34;;;;;;;1.50;1.40;;;;;;;20.15;100.00;96561.00;4913210;28;101816;-60
2022/06/06 07:32:27;;;;;;;2.27;1.60;;;;;;;20.65;100.00;96559.78;4913292;28;102495;-61
2022/06/06 07:35:03;;;;;;;2.63;1.50;;;;;;;20.26;100.00;96552.38;4911209;28;104030;-60
2022/06/06 07:37:43;;;;;;;1.40;1.40;;;;;;;20.53;100.00;96556.81;4913338;28;101922;-60
2022/06/06 07:40:24;;;;;;;1.53;1.40;;;;;;;20.72;100.00;96549.31;4913004;28;103033;-60
2022/06/06 07:43:11;;;;;;;1.80;1.70;;;;;;;20.94;100.00;96549.28;4912217;28;103084;-60
2022/06/06 07:45:45;;;;;;;1.40;1.30;;;;;;;21.18;100.00;96552.41;4912032;28;102027;-60
2022/06/06 07:48:46;;;;;;;1.60;1.50;;;;;;;21.37;100.00;96551.03;4915652;28;103011;-60
2022/06/06 07:51:18;;;;;;;1.57;1.40;;;;;;;21.09;100.00;96554.28;4910348;28;101876;-60
2022/06/06 07:53:54;;;;;;;1.63;1.53;;;;;;;20.97;100.00;96548.66;4912947;28;102417;-60
2022/06/06 07:56:35;;;;;;;3.43;1.70;;;;;;;20.76;100.00;96547.59;4911069;28;103952;-60
2022/06/06 07:59:12;;;;;;;2.40;1.60;;;;;;;20.92;100.00;96548.81;4912914;28;101886;-60
2022/06/06 08:01:51;;;;;;;2.93;1.47;;;;;;;20.79;100.00;96550.47;4911468;28;103923;-60
2022/06/06 08:04:26;;;;;;;1.47;1.37;;;;;;;21.44;100.00;96553.28;4910864;28;105276;-60
2022/06/06 08:07:06;;;;;;;1.70;1.57;;;;;;;21.83;100.00;96545.09;4913025;28;101822;-60
2022/06/06 08:09:57;;;;;;;2.70;1.50;;;;;;;22.03;100.00;96539.06;4911476;28;103837;-60
2022/06/06 08:12:47;;;;;;;1.60;1.50;;;;;;;22.28;100.00;96541.75;4913914;28;104196;-60
2022/06/06 08:15:27;;;;;;;2.07;1.60;;;;;;;22.63;100.00;96546.03;4911196;28;104912;-60
2022/06/06 08:18:16;;;;;;;2.77;1.60;;;;;;;22.05;100.00;96545.75;4910928;28;103964;-60
2022/06/06 08:20:56;;;;;;;2.20;1.50;;;;;;;22.25;100.00;96549.72;4910975;28;101929;-60
2022/06/06 08:23:26;;;;;;;3.43;1.50;;;;;;;22.21;100.00;96546.84;4911201;28;105254;-60
2022/06/06 08:25:56;;;;;;;2.63;1.47;;;;;;;22.32;100.00;96547.31;4910251;28;105742;-60
2022/06/06 08:28:26;;;;;;;1.47;1.37;;;;;;;22.36;100.00;96543.66;4911032;28;101818;-60
2022/06/06 08:30:53;;;;;;;1.47;1.30;;;;;;;22.10;100.00;96540.16;4911114;28;105255;-60
2022/06/06 08:33:21;;;;;;;1.67;1.50;;;;;;;22.51;100.00;96543.16;4910454;28;105048;-60
2022/06/06 08:36:08;;;;;;;1.87;1.40;;;;;;;22.88;100.00;96536.22;4915704;28;101836;-60
2022/06/06 08:38:49;;;;;;;1.60;1.50;;;;;;;22.80;100.00;96548.69;4910248;28;105449;-60
2022/06/06 08:41:50;;;;;;;1.63;1.40;;;;;;;22.81;100.00;96539.44;4911973;28;101744;-60
2022/06/06 08:44:28;;;;;;;1.47;1.37;;;;;;;23.05;100.00;96542.38;4910918;28;105125;-60
2022/06/06 08:47:06;;;;;;;2.20;1.20;;;;;;;22.86;100.00;96541.16;4910253;28;107428;-64
2022/06/06 08:53:15;;;;;;;1.77;1.37;;;;;;;23.31;100.00;96539.56;4910479;28;105249;-64
2022/06/06 08:56:07;;;;;;;1.67;1.57;;;;;;;23.66;100.00;96532.81;4893928;28;106728;-62
2022/06/06 08:59:06;;;;;;;1.47;1.37;;;;;;;23.56;100.00;96533.19;4910897;28;101921;-62
2022/06/06 09:01:55;;;;;;;1.30;1.20;;;;;;;24.27;100.00;96524.69;4898340;28;105143;-62
2022/06/06 09:04:45;;;;;;;1.40;1.30;;;;;;;24.77;100.00;96521.81;4914157;28;101964;-62
2022/06/06 09:08:03;;;;;;;1.83;1.57;;;;;;;22.90;100.00;96528.56;4914150;28;105101;-63
2022/06/06 09:10:55;;;;;;;1.50;1.40;;;;;;;23.68;100.00;96523.22;4913500;28;104180;-65
2022/06/06 09:13:53;;;;;;;1.50;1.40;;;;;;;23.60;100.00;96520.56;4914196;28;101915;-66
2022/06/06 09:16:46;;;;;;;2.33;1.80;;;;;;;23.38;100.00;96526.28;4914941;28;104108;-63
2022/06/06 09:19:52;;;;;;;2.23;2.03;;;;;;;23.64;100.00;96516.06;4931745;28;105936;-62
2022/06/06 09:22:52;;;;;;;3.57;2.33;;;;;;;22.89;100.00;96516.13;4933142;28;102104;-62
2022/06/06 09:25:37;;;;;;;1.70;1.60;;;;;;;22.64;100.00;96514.28;4934458;28;102364;-62
2022/06/06 09:28:43;;;;;;;2.20;1.90;;;;;;;23.00;100.00;96507.28;4935973;28;105588;-62
2022/06/06 09:31:48;;;;;;;1.60;1.50;;;;;;;22.80;100.00;96509.94;4930120;28;103588;-63
2022/06/06 09:34:39;;;;;;;2.37;1.63;;;;;;;23.16;100.00;96516.47;4923642;28;104379;-62
2022/06/06 09:37:19;;;;;;;1.60;1.50;;;;;;;23.97;100.00;96504.16;4929760;28;103436;-63
2022/06/06 09:39:56;;;;;;;1.70;1.40;;;;;;;24.82;100.00;96507.97;4924493;28;103056;-76
2022/06/06 09:42:40;;;;;;;2.43;1.70;;;;;;;25.36;99.93;96506.69;4927984;28;103563;-62
2022/06/06 09:45:31;;;;;;;1.67;1.57;;;;;;;23.52;100.00;96513.25;4913975;28;101855;-62
2022/06/06 09:48:29;;;;;;;3.93;1.80;;;;;;;23.91;100.00;96515.56;4913839;28;102528;-62
2022/06/06 09:51:44;;;;;;;4.43;3.63;;;;;;;23.86;100.00;96513.81;4914066;28;103182;-63
2022/06/06 10:02:29;;;;;;;2.40;1.80;;;;;;;23.38;100.00;96508.06;5030641;28;101606;-63
2022/06/06 10:05:51;;;;;;;2.27;1.40;;;;;;;23.56;100.00;96511.47;4995079;27;102606;-63
2022/06/06 10:09:09;;;;;;;1.93;1.80;;;;;;;24.06;100.00;96501.38;5025749;28;101915;-63
2022/06/06 10:11:52;;;;;;;1.40;1.30;;;;;;;24.42;100.00;96505.03;5025565;28;105092;-63
2022/06/06 10:14:40;;;;;;;2.80;1.60;;;;;;;24.95;100.00;96502.22;5026553;28;103009;-64
2022/06/06 10:17:20;;;;;;;1.83;1.70;;;;;;;25.81;100.00;96497.22;5039623;27;102243;-63
2022/06/06 10:20:04;;;;;;;1.67;1.57;;;;;;;25.55;100.00;96496.78;5025568;28;105264;-63
2022/06/06 10:22:55;;;;;;;3.00;2.80;;;;;;;25.63;100.00;96489.63;5026400;27;102612;-63
2022/06/06 10:29:19;;;;;;;2.67;1.77;;;;;;;25.97;97.55;96494.56;5024753;28;104249;-63
2022/06/06 10:32:05;;;;;;;2.23;1.70;;;;;;;25.52;100.00;96491.25;5025418;28;101884;-63
2022/06/06 10:35:04;;;;;;;1.50;1.40;;;;;;;25.58;100.00;96487.94;5025416;28;103661;-64
2022/06/06 10:37:58;;;;;;;1.53;1.43;;;;;;;25.75;96.64;96484.16;5025420;27;102925;-63
2022/06/06 10:40:50;;;;;;;1.77;1.67;;;;;;;25.25;100.00;96490.03;5026633;28;101828;-63
2022/06/06 10:43:33;;;;;;;1.73;1.63;;;;;;;25.40;100.00;96485.81;5025140;28;104198;-63
2022/06/06 10:46:18;;;;;;;1.43;1.33;;;;;;;25.93;97.63;96489.03;5026073;28;102710;-64
2022/06/06 10:49:08;;;;;;;1.70;1.60;;;;;;;26.09;91.69;96481.69;5026608;27;101686;-64
2022/06/06 10:52:23;;;;;;;2.37;1.60;;;;;;;25.43;93.40;96479.66;5029495;28;102383;-63
2022/06/06 10:55:29;;;;;;;1.83;1.67;;;;;;;24.34;100.00;96476.00;4965177;28;103249;-63
2022/06/06 10:58:47;;;;;;;1.70;1.60;;;;;;;24.99;100.00;96470.50;4983920;28;102673;-64
2022/06/06 11:01:50;;;;;;;1.57;1.43;;;;;;;25.24;100.00;96463.88;5022530;28;106852;-64
2022/06/06 11:04:52;;;;;;;1.80;1.70;;;;;;;26.48;95.61;96469.16;5010546;27;102039;-64
2022/06/06 11:07:48;;;;;;;3.53;1.67;;;;;;;26.62;92.29;96464.88;5026100;28;103320;-63
2022/06/06 11:10:43;;;;;;;1.57;1.47;;;;;;;25.94;84.78;96468.03;5023965;28;105336;-63
2022/06/06 11:13:29;;;;;;;1.37;1.27;;;;;;;25.78;91.22;96465.19;4988305;28;101840;-63
2022/06/06 11:16:38;;;;;;;1.43;1.33;;;;;;;26.27;74.20;96466.63;5012338;28;102362;-64
2022/06/06 11:19:32;;;;;;;1.40;1.33;;;;;;;26.72;66.51;96460.84;5013627;28;105441;-64
2022/06/06 11:22:29;;;;;;;1.33;1.27;;;;;;;26.05;79.65;96450.03;5027388;28;105280;-64
2022/06/06 11:25:15;;;;;;;1.30;1.20;;;;;;;26.34;73.61;96445.00;5011977;28;103112;-64
2022/06/06 11:28:27;;;;;;;1.87;1.40;;;;;;;26.28;79.10;96445.59;5012374;28;101799;-64
2022/06/06 11:31:41;;;;;;;1.77;1.10;;;;;;;27.19;81.84;96448.00;5010852;28;105615;-63
2022/06/06 11:34:46;;;;;;;2.40;1.50;;;;;;;26.90;75.39;96438.31;4969587;28;102582;-63
2022/06/06 11:37:49;;;;;;;1.83;1.30;;;;;;;25.94;86.01;96438.03;4970351;28;101902;-64
2022/06/06 11:40:49;;;;;;;2.33;1.40;;;;;;;26.60;79.79;96433.63;4953537;28;105689;-64
2022/06/06 11:43:51;;;;;;;1.53;1.43;;;;;;;26.80;100.00;96429.88;4952750;28;105484;-63
2022/06/06 11:47:05;;;;;;;1.30;1.20;;;;;;;27.96;99.20;96431.38;4973514;28;102384;-64
2022/06/06 11:50:02;;;;;;;2.00;1.60;;;;;;;28.78;85.86;96426.31;4969004;28;102862;-63
2022/06/06 11:53:25;;;;;;;1.40;1.30;;;;;;;29.08;77.73;96422.53;4969991;28;101915;-63
2022/06/06 11:56:02;;;;;;;1.20;1.20;;;;;;;28.02;81.59;96420.94;4969730;28;103032;-63
2022/06/06 11:59:09;;;;;;;2.73;1.20;;;;;;;27.55;90.90;96415.66;4969093;28;103066;-63
2022/06/06 12:02:21;;;;;;;1.20;1.20;;;;;;;27.42;88.97;96416.13;4952531;28;102532;-64
2022/06/06 12:05:19;;;;;;;2.00;1.70;;;;;;;27.48;81.79;96411.97;4953259;28;105164;-64
2022/06/06 12:08:22;;;;;;;2.27;1.23;;;;;;;27.35;81.45;96407.78;4970774;28;105482;-64
2022/06/06 12:11:04;;;;;;;1.40;1.30;;;;;;;27.37;81.10;96409.03;5010045;28;101962;-64
2022/06/06 12:14:01;;;;;;;2.50;1.20;;;;;;;28.21;64.85;96401.78;5014710;28;102410;-64
2022/06/06 12:16:32;;;;;;;1.43;1.20;;;;;;;27.98;66.32;96392.75;5011606;28;101757;-63
2022/06/06 12:19:19;;;;;;;2.43;1.30;;;;;;;28.55;67.67;96393.44;5011405;28;102344;-63
2022/06/06 12:22:21;;;;;;;2.47;1.80;;;;;;;28.77;78.33;96389.13;5010766;28;103117;-64
2022/06/06 12:25:27;;;;;;;1.50;1.40;;;;;;;28.10;60.41;96395.31;4998419;28;101838;-63
2022/06/06 12:28:34;;;;;;;1.50;1.40;;;;;;;28.72;77.91;96375.75;5010551;28;103030;-64
2022/06/06 12:31:27;;;;;;;1.97;1.60;;;;;;;27.14;77.66;96379.97;4987185;28;105816;-64
2022/06/06 12:34:01;;;;;;;1.40;1.30;;;;;;;26.77;92.20;96376.78;5011478;28;101681;-64
2022/06/06 12:36:32;;;;;;;1.50;1.33;;;;;;;26.91;95.11;96368.13;5011476;28;102420;-63
2022/06/06 12:39:06;;;;;;;1.73;1.30;;;;;;;26.44;97.31;96370.06;5014091;28;101670;-63
2022/06/06 12:41:47;;;;;;;1.53;1.30;;;;;;;27.00;98.00;96372.25;5011104;28;101649;-63
2022/06/06 12:44:31;;;;;;;1.43;1.30;;;;;;;26.06;83.42;96362.47;5010554;28;102473;-63
2022/06/06 12:47:17;;;;;;;1.70;1.60;;;;;;;26.84;80.76;96370.69;5011120;28;101744;-64
2022/06/06 12:50:26;;;;;;;1.37;1.27;;;;;;;26.01;73.50;96362.72;5011385;28;102594;-64
2022/06/06 12:53:18;;;;;;;1.30;1.20;;;;;;;27.19;71.46;96366.84;4999343;28;102699;-63
2022/06/06 12:58:41;;;;;;;2.23;1.60;;;;;;;28.06;54.92;96361.66;4997383;28;105512;-64
2022/06/06 13:04:18;;;;;;;1.43;1.33;;;;;;;28.40;65.59;96352.53;5011144;28;102777;-64